Time;durP1;ratioP1;P1;durP2;ratioP2;P2;SDS_P1;SDS_P2;PMS_P1;PMS_P2;Temp;Humidity;BMP_temperature;BMP_pressure;BME280_temperature;BME280_humidity;BME280_pressure;Samples;Min_cycle;Max_cycle;Signal;HPM_P1;HPM_P2
2023/05/01 00:02:18;;;;;;;4.03;2.13;;;10.40;99.90;;;;;;5033650;28;20266;-51
2023/05/01 00:04:44;;;;;;;4.43;2.23;;;10.40;99.90;;;;;;5033641;28;20665;-52
2023/05/01 00:07:09;;;;;;;4.97;1.93;;;10.40;99.90;;;;;;5033658;28;20544;-50
2023/05/01 00:09:35;;;;;;;5.93;2.37;;;10.50;99.90;;;;;;5034702;28;20235;-50
2023/05/01 00:12:01;;;;;;;6.07;2.40;;;10.50;99.90;;;;;;5016127;28;20207;-50
2023/05/01 00:14:27;;;;;;;4.87;2.43;;;10.60;99.90;;;;;;5033864;28;20284;-50
2023/05/01 00:16:53;;;;;;;8.10;2.77;;;10.60;99.90;;;;;;5034246;28;20276;-51
2023/05/01 00:19:18;;;;;;;3.87;2.40;;;10.60;99.90;;;;;;5041551;28;20181;-51
2023/05/01 00:21:46;;;;;;;3.27;2.40;;;10.60;99.90;;;;;;5047280;28;20267;-45
2023/05/01 00:24:12;;;;;;;5.07;2.43;;;10.70;99.90;;;;;;5037302;28;20331;-46
2023/05/01 00:26:37;;;;;;;3.67;1.97;;;10.70;99.90;;;;;;5034823;28;20662;-43
2023/05/01 00:29:03;;;;;;;5.33;2.50;;;10.70;99.90;;;;;;5033920;28;20526;-44
2023/05/01 00:31:29;;;;;;;5.90;2.40;;;10.60;99.90;;;;;;5033350;28;20184;-44
2023/05/01 00:33:55;;;;;;;5.37;2.50;;;10.70;99.90;;;;;;5033225;28;20208;-42
2023/05/01 00:36:20;;;;;;;4.90;2.43;;;10.70;99.90;;;;;;5033216;28;20185;-43
2023/05/01 00:38:46;;;;;;;4.77;2.70;;;10.70;99.90;;;;;;5033261;28;20181;-46
2023/05/01 00:41:12;;;;;;;5.17;2.30;;;10.70;99.90;;;;;;5033665;28;20176;-44
2023/05/01 00:43:37;;;;;;;3.57;2.23;;;10.70;99.90;;;;;;5033165;28;20207;-44
2023/05/01 00:46:03;;;;;;;4.73;2.30;;;10.70;99.90;;;;;;5033144;28;20180;-44
2023/05/01 00:48:29;;;;;;;4.07;2.33;;;10.70;99.90;;;;;;5032989;28;20207;-44
2023/05/01 00:50:56;;;;;;;3.63;2.60;;;10.70;99.90;;;;;;5033027;28;20272;-43
2023/05/01 00:53:25;;;;;;;3.70;2.30;;;10.70;99.90;;;;;;5033076;28;20207;-45
2023/05/01 00:55:50;;;;;;;3.57;2.47;;;10.60;99.90;;;;;;5032873;28;20209;-43
2023/05/01 00:58:17;;;;;;;3.93;2.33;;;10.60;99.90;;;;;;5032998;28;20234;-46
2023/05/01 01:00:43;;;;;;;4.33;2.07;;;10.60;99.90;;;;;;5033320;28;20591;-44
2023/05/01 01:03:10;;;;;;;4.67;2.67;;;10.50;99.90;;;;;;5015349;28;20208;-46
2023/05/01 01:05:43;;;;;;;4.97;2.47;;;10.50;99.90;;;;;;5033190;28;20267;-43
2023/05/01 01:08:25;;;;;;;4.57;2.23;;;10.50;99.90;;;;;;5033272;28;20227;-44
2023/05/01 01:11:22;;;;;;;5.93;2.23;;;10.40;99.90;;;;;;5034993;28;20539;-43
2023/05/01 01:13:53;;;;;;;6.03;2.57;;;10.40;99.90;;;;;;5018898;28;20208;-45
2023/05/01 01:16:42;;;;;;;10.17;3.10;;;10.40;99.90;;;;;;5036575;28;20713;-45
2023/05/01 01:19:27;;;;;;;4.27;2.43;;;10.50;99.90;;;;;;5036681;28;20169;-46
2023/05/01 01:22:00;;;;;;;4.07;2.57;;;10.50;99.90;;;;;;5036796;28;20204;-45
2023/05/01 01:25:05;;;;;;;2.83;2.30;;;10.50;99.90;;;;;;5036752;28;20173;-43
2023/05/01 01:27:39;;;;;;;4.23;2.67;;;10.50;99.90;;;;;;4937134;29;20279;-43
2023/05/01 01:30:34;;;;;;;6.10;2.93;;;10.50;99.90;;;;;;5007701;28;20557;-44
2023/05/01 01:33:18;;;;;;;5.70;2.43;;;10.50;99.90;;;;;;5036564;28;20215;-45
2023/05/01 01:35:52;;;;;;;3.57;2.67;;;10.50;99.90;;;;;;5036465;28;20193;-45
2023/05/01 01:38:55;;;;;;;4.43;2.37;;;10.50;99.90;;;;;;5036581;28;20168;-45
2023/05/01 01:41:32;;;;;;;5.20;2.90;;;10.50;99.90;;;;;;4985846;28;20191;-44
2023/05/01 01:44:01;;;;;;;5.13;2.90;;;10.50;99.90;;;;;;5036359;28;20172;-43
2023/05/01 01:46:29;;;;;;;7.63;3.07;;;10.60;99.90;;;;;;5036102;28;20180;-45
2023/05/01 01:48:56;;;;;;;7.57;2.83;;;10.60;99.90;;;;;;5036069;28;20208;-44
2023/05/01 01:51:25;;;;;;;3.77;2.60;;;10.60;99.90;;;;;;5036027;28;20216;-45
2023/05/01 01:53:55;;;;;;;3.97;2.73;;;10.60;99.90;;;;;;5036155;28;20291;-42
2023/05/01 01:56:21;;;;;;;4.33;3.13;;;10.60;99.90;;;;;;5036160;28;20207;-46
2023/05/01 01:58:50;;;;;;;3.77;2.83;;;10.60;99.90;;;;;;5036140;28;20542;-45
2023/05/01 02:01:17;;;;;;;4.10;2.93;;;10.50;99.90;;;;;;5036140;28;20184;-45
2023/05/01 02:03:44;;;;;;;4.00;2.90;;;10.50;99.90;;;;;;5035763;28;20195;-43
2023/05/01 02:06:11;;;;;;;3.83;2.80;;;10.50;99.90;;;;;;5035806;28;20649;-47
2023/05/01 02:08:38;;;;;;;8.33;4.13;;;10.50;99.90;;;;;;5035693;28;20204;-45
2023/05/01 02:11:05;;;;;;;3.50;2.67;;;10.50;99.90;;;;;;5035798;28;20208;-45
2023/05/01 02:13:31;;;;;;;7.63;3.47;;;10.40;99.90;;;;;;5035873;28;20231;-44
2023/05/01 02:15:59;;;;;;;3.90;2.50;;;10.40;99.90;;;;;;5035559;28;20192;-46
2023/05/01 02:18:27;;;;;;;4.70;3.03;;;10.40;99.90;;;;;;5036050;28;20554;-45
2023/05/01 02:20:55;;;;;;;4.80;3.20;;;10.40;99.90;;;;;;5035948;28;20204;-51
2023/05/01 02:23:22;;;;;;;4.00;3.10;;;10.40;99.90;;;;;;5035560;28;20201;-50
2023/05/01 02:25:51;;;;;;;4.27;3.20;;;10.40;99.90;;;;;;5035664;28;20533;-52
2023/05/01 02:28:22;;;;;;;7.67;3.40;;;10.40;99.90;;;;;;5035622;28;20542;-53
2023/05/01 02:30:47;;;;;;;7.73;3.80;;;10.50;99.90;;;;;;5035293;28;20633;-52
2023/05/01 02:33:13;;;;;;;4.67;3.10;;;10.50;99.90;;;;;;5035507;28;20204;-45
2023/05/01 02:35:43;;;;;;;5.07;3.13;;;10.50;99.90;;;;;;5035827;28;20240;-46
2023/05/01 02:38:11;;;;;;;6.80;3.20;;;10.50;99.90;;;;;;5036006;28;20709;-45
2023/05/01 02:40:38;;;;;;;4.20;3.30;;;10.50;99.90;;;;;;5035515;28;20185;-52
2023/05/01 02:43:08;;;;;;;6.90;3.83;;;10.50;99.90;;;;;;5035432;28;20540;-51
2023/05/01 02:45:36;;;;;;;3.80;2.87;;;10.40;99.90;;;;;;5035244;28;20168;-50
2023/05/01 02:48:04;;;;;;;4.00;3.00;;;10.40;99.90;;;;;;5034928;28;20279;-50
2023/05/01 02:50:31;;;;;;;6.03;3.50;;;10.40;99.90;;;;;;5035304;28;20187;-52
2023/05/01 02:52:57;;;;;;;5.23;3.50;;;10.50;99.90;;;;;;5034797;28;20204;-53
2023/05/01 02:55:23;;;;;;;4.67;3.03;;;10.40;99.90;;;;;;5034797;28;20284;-51
2023/05/01 02:57:52;;;;;;;8.10;3.00;;;10.50;99.90;;;;;;5034861;28;20311;-52
2023/05/01 03:00:18;;;;;;;5.23;2.97;;;10.50;99.90;;;;;;5035086;28;20173;-50
2023/05/01 03:02:45;;;;;;;4.77;3.10;;;10.50;99.90;;;;;;5034943;28;20284;-50
2023/05/01 03:05:10;;;;;;;7.43;3.50;;;10.40;99.90;;;;;;5034661;28;20247;-51
2023/05/01 03:07:36;;;;;;;5.70;2.93;;;10.50;99.90;;;;;;5034639;28;20205;-50
2023/05/01 03:10:03;;;;;;;5.07;3.70;;;10.40;99.90;;;;;;5034537;28;20645;-50
2023/05/01 03:12:31;;;;;;;7.93;3.57;;;10.40;99.90;;;;;;5034701;28;20209;-50
2023/05/01 03:14:57;;;;;;;7.23;3.50;;;10.50;99.90;;;;;;5034391;28;20201;-51
2023/05/01 03:17:22;;;;;;;6.60;3.80;;;10.40;99.90;;;;;;5034368;28;20177;-50
2023/05/01 03:19:48;;;;;;;5.10;3.70;;;10.40;99.90;;;;;;5034693;28;20180;-52
2023/05/01 03:22:14;;;;;;;6.30;3.70;;;10.40;99.90;;;;;;5034638;28;20576;-50
2023/05/01 03:24:40;;;;;;;6.47;3.70;;;10.40;99.90;;;;;;5034859;28;20188;-46
2023/05/01 03:27:06;;;;;;;5.83;3.53;;;10.40;99.90;;;;;;5034696;28;20572;-45
2023/05/01 03:29:33;;;;;;;4.93;3.47;;;10.30;99.90;;;;;;5034997;28;20530;-46
2023/05/01 03:31:59;;;;;;;5.10;3.40;;;10.40;99.90;;;;;;5035288;28;20201;-46
2023/05/01 03:34:25;;;;;;;5.40;3.63;;;10.40;99.90;;;;;;5036090;28;20231;-45
2023/05/01 03:36:51;;;;;;;6.83;4.03;;;10.40;99.90;;;;;;5041456;28;20188;-46
2023/05/01 03:39:16;;;;;;;3.70;3.30;;;10.30;99.90;;;;;;5048248;28;20209;-46
2023/05/01 03:41:42;;;;;;;4.90;3.50;;;10.30;99.90;;;;;;5042959;28;20185;-45
2023/05/01 03:44:07;;;;;;;4.90;3.70;;;10.30;99.90;;;;;;5034637;28;20180;-46
2023/05/01 03:46:33;;;;;;;5.47;3.13;;;10.30;99.90;;;;;;5034899;28;20176;-47
2023/05/01 03:48:58;;;;;;;3.87;3.20;;;10.30;99.90;;;;;;5034212;28;20192;-44
2023/05/01 03:51:24;;;;;;;4.90;3.50;;;10.30;99.90;;;;;;5035478;28;20188;-45
2023/05/01 03:53:51;;;;;;;6.50;3.53;;;10.30;99.90;;;;;;5034353;28;20204;-44
2023/05/01 03:56:16;;;;;;;5.10;3.33;;;10.30;99.90;;;;;;5034192;28;20197;-46
2023/05/01 03:58:42;;;;;;;7.03;4.43;;;10.30;99.90;;;;;;5034045;28;20187;-45
2023/05/01 04:01:08;;;;;;;6.93;3.33;;;10.30;99.90;;;;;;5016056;28;20181;-45
2023/05/01 04:03:34;;;;;;;7.37;3.33;;;10.30;99.90;;;;;;5016392;28;20204;-47
2023/05/01 04:05:59;;;;;;;5.30;3.73;;;10.30;99.90;;;;;;5033580;28;20214;-45
2023/05/01 04:08:25;;;;;;;5.33;3.57;;;10.30;99.90;;;;;;5033815;28;20210;-47
2023/05/01 04:10:50;;;;;;;5.77;3.33;;;10.30;99.90;;;;;;5033770;28;20592;-45
2023/05/01 04:13:16;;;;;;;5.37;3.43;;;10.30;99.90;;;;;;5033401;28;20208;-45
2023/05/01 04:15:45;;;;;;;4.50;3.40;;;10.30;99.90;;;;;;5033789;28;20207;-52
2023/05/01 04:18:11;;;;;;;11.23;3.73;;;10.40;99.90;;;;;;5033464;28;20179;-50
2023/05/01 04:20:37;;;;;;;7.70;3.73;;;10.30;99.90;;;;;;5033331;28;20644;-51
2023/05/01 04:23:02;;;;;;;5.07;3.43;;;10.30;99.90;;;;;;5033282;28;20193;-44
2023/05/01 04:25:28;;;;;;;4.20;3.10;;;10.40;99.90;;;;;;5033317;28;20181;-41
2023/05/01 04:27:53;;;;;;;4.23;3.23;;;10.40;99.90;;;;;;5033549;28;20185;-46
2023/05/01 04:30:19;;;;;;;4.53;3.20;;;10.30;99.90;;;;;;5033437;28;20180;-46
2023/05/01 04:32:45;;;;;;;3.90;3.10;;;10.30;99.90;;;;;;5015514;28;20208;-47
2023/05/01 04:35:11;;;;;;;4.67;3.77;;;10.30;99.90;;;;;;5015821;28;20196;-45
2023/05/01 04:37:36;;;;;;;7.80;4.13;;;10.30;99.90;;;;;;5034022;28;20177;-48
2023/05/01 04:40:03;;;;;;;5.93;3.80;;;10.30;99.90;;;;;;5033258;28;20230;-46
2023/05/01 04:42:32;;;;;;;7.10;3.97;;;10.30;99.90;;;;;;5033124;28;20192;-44
2023/05/01 04:45:00;;;;;;;6.67;4.23;;;10.30;99.90;;;;;;5033858;28;20192;-45
2023/05/01 04:47:27;;;;;;;6.03;3.60;;;10.30;99.90;;;;;;5037328;28;20176;-46
2023/05/01 04:49:52;;;;;;;6.20;3.60;;;10.30;99.90;;;;;;5037436;28;20238;-46
2023/05/01 04:52:18;;;;;;;7.80;3.80;;;10.30;99.90;;;;;;5037340;28;20201;-46
2023/05/01 04:54:44;;;;;;;6.00;4.00;;;10.40;99.90;;;;;;5037598;28;20249;-46
2023/05/01 04:57:09;;;;;;;6.50;4.00;;;10.40;99.90;;;;;;5036993;28;20637;-45
2023/05/01 04:59:35;;;;;;;8.70;4.43;;;10.40;99.90;;;;;;5037106;28;20645;-46
2023/05/01 05:02:00;;;;;;;8.83;4.50;;;10.40;99.90;;;;;;5037126;28;20669;-45
2023/05/01 05:04:26;;;;;;;5.17;3.77;;;10.40;99.90;;;;;;5037329;28;20511;-43
2023/05/01 05:06:52;;;;;;;5.77;4.20;;;10.50;99.90;;;;;;5037321;28;20227;-44
2023/05/01 05:09:18;;;;;;;5.00;3.50;;;10.60;99.90;;;;;;5036745;28;20185;-42
2023/05/01 05:11:43;;;;;;;8.50;4.53;;;10.60;99.90;;;;;;5036812;28;20181;-45
2023/05/01 05:14:09;;;;;;;5.03;3.90;;;10.70;99.90;;;;;;5036703;28;20176;-45
2023/05/01 05:16:35;;;;;;;7.47;4.33;;;10.70;99.90;;;;;;5018894;28;20189;-46
2023/05/01 05:19:00;;;;;;;6.23;4.43;;;10.70;99.90;;;;;;5036693;28;20188;-46
2023/05/01 05:21:26;;;;;;;11.07;4.70;;;10.80;99.90;;;;;;5036574;28;20247;-46
2023/05/01 05:23:51;;;;;;;10.93;4.33;;;10.80;99.90;;;;;;5036463;28;20226;-43
2023/05/01 05:26:17;;;;;;;6.37;4.40;;;10.90;99.90;;;;;;5036607;28;20552;-44
2023/05/01 05:28:44;;;;;;;7.93;3.90;;;10.90;99.90;;;;;;5036760;28;20212;-44
2023/05/01 05:31:09;;;;;;;5.03;4.20;;;10.90;99.90;;;;;;5018734;28;20225;-45
2023/05/01 05:33:35;;;;;;;8.23;4.93;;;10.90;99.90;;;;;;5036370;28;20207;-48
2023/05/01 05:36:00;;;;;;;6.50;4.03;;;11.00;99.90;;;;;;5036641;28;20292;-51
2023/05/01 05:38:26;;;;;;;5.77;4.70;;;11.00;99.90;;;;;;5036382;28;20177;-48
2023/05/01 05:40:53;;;;;;;7.37;4.40;;;11.10;99.90;;;;;;5036669;28;20604;-49
2023/05/01 05:43:19;;;;;;;11.43;4.03;;;11.10;99.90;;;;;;5036576;28;20208;-51
2023/05/01 05:45:44;;;;;;;5.90;4.37;;;11.10;99.90;;;;;;5036146;28;20200;-51
2023/05/01 05:48:10;;;;;;;6.03;4.27;;;11.20;99.90;;;;;;5036239;28;20211;-50
2023/05/01 05:50:36;;;;;;;4.87;4.00;;;11.20;99.90;;;;;;5036190;28;20185;-52
2023/05/01 05:53:01;;;;;;;4.80;4.03;;;11.20;99.90;;;;;;5036053;28;20209;-50
2023/05/01 05:55:27;;;;;;;5.73;4.03;;;11.30;99.90;;;;;;5035882;28;20203;-52
2023/05/01 05:57:52;;;;;;;4.97;4.20;;;11.40;99.90;;;;;;5036178;28;20267;-51
2023/05/01 06:00:18;;;;;;;6.03;4.03;;;11.30;99.90;;;;;;5036338;28;20180;-51
2023/05/01 06:02:44;;;;;;;8.67;4.20;;;11.40;99.90;;;;;;5036286;28;20196;-50
2023/05/01 06:05:10;;;;;;;6.07;4.37;;;11.40;99.90;;;;;;5035802;28;20187;-49
2023/05/01 06:07:36;;;;;;;8.93;4.37;;;11.50;99.90;;;;;;5035751;28;20192;-51
2023/05/01 06:10:05;;;;;;;6.70;4.27;;;11.60;99.90;;;;;;5036086;28;20196;-48
2023/05/01 06:12:31;;;;;;;5.77;4.43;;;11.60;99.90;;;;;;5035882;28;20207;-50
2023/05/01 06:14:57;;;;;;;7.30;4.40;;;11.70;99.90;;;;;;5035940;28;20208;-50
2023/05/01 06:17:23;;;;;;;6.77;5.30;;;11.70;99.90;;;;;;5035781;28;20180;-50
2023/05/01 06:19:51;;;;;;;5.90;4.17;;;11.70;99.90;;;;;;5035907;28;20181;-50
2023/05/01 06:22:20;;;;;;;6.67;4.57;;;11.80;99.90;;;;;;5035951;28;20204;-50
2023/05/01 06:24:45;;;;;;;6.63;4.20;;;11.80;99.90;;;;;;5035563;28;20188;-50
2023/05/01 06:27:11;;;;;;;7.00;4.33;;;11.90;99.90;;;;;;5035791;28;20184;-50
2023/05/01 06:29:37;;;;;;;5.53;4.27;;;12.00;99.90;;;;;;5035570;28;20719;-50
2023/05/01 06:32:03;;;;;;;5.43;3.60;;;12.00;99.90;;;;;;5035802;28;20201;-50
2023/05/01 06:34:29;;;;;;;4.43;3.90;;;12.10;99.90;;;;;;5018300;28;20204;-49
2023/05/01 06:36:54;;;;;;;5.27;3.97;;;12.20;99.90;;;;;;5036305;28;20285;-48
2023/05/01 06:39:20;;;;;;;7.30;4.50;;;12.30;99.90;;;;;;5036181;28;20177;-50
2023/05/01 06:41:46;;;;;;;3.83;3.47;;;12.40;99.90;;;;;;5035177;28;20181;-51
2023/05/01 06:44:12;;;;;;;5.37;3.90;;;12.40;99.90;;;;;;5017965;28;20192;-51
2023/05/01 06:46:38;;;;;;;5.60;3.63;;;12.50;99.90;;;;;;5035316;28;20231;-52
2023/05/01 06:49:04;;;;;;;6.20;3.57;;;12.50;99.90;;;;;;5035971;28;20193;-46
2023/05/01 06:51:30;;;;;;;4.97;3.70;;;12.60;99.90;;;;;;5036456;28;20264;-46
2023/05/01 06:53:56;;;;;;;4.53;3.50;;;12.60;99.90;;;;;;5037284;28;20685;-46
2023/05/01 06:56:21;;;;;;;6.90;3.70;;;12.80;99.90;;;;;;5044627;28;20216;-47
2023/05/01 06:58:47;;;;;;;6.83;3.77;;;12.80;99.90;;;;;;5027120;28;20185;-46
2023/05/01 07:01:13;;;;;;;4.13;3.33;;;12.90;99.90;;;;;;5036184;28;20243;-46
2023/05/01 07:03:38;;;;;;;4.50;3.43;;;13.00;99.90;;;;;;5035251;28;20205;-45
2023/05/01 07:06:04;;;;;;;4.10;3.30;;;13.20;99.90;;;;;;5035481;28;20187;-46
2023/05/01 07:08:30;;;;;;;6.37;3.53;;;13.30;99.90;;;;;;5034611;28;20188;-46
2023/05/01 07:10:56;;;;;;;6.50;3.53;;;13.40;99.90;;;;;;5035546;28;20185;-46
2023/05/01 07:13:23;;;;;;;5.07;3.67;;;13.60;99.90;;;;;;5035637;28;20203;-47
2023/05/01 07:15:49;;;;;;;3.57;3.27;;;13.80;99.90;;;;;;5035374;28;20523;-46
2023/05/01 07:18:15;;;;;;;5.03;4.03;;;14.00;99.90;;;;;;5034495;28;20187;-46
2023/05/01 07:20:41;;;;;;;4.70;3.80;;;14.10;99.90;;;;;;5034776;28;20213;-46
2023/05/01 07:23:08;;;;;;;4.00;3.57;;;14.20;99.90;;;;;;5034699;28;20220;-48
2023/05/01 07:25:36;;;;;;;5.83;3.73;;;14.20;99.90;;;;;;5034441;28;20193;-47
2023/05/01 07:28:03;;;;;;;4.90;3.03;;;14.30;99.90;;;;;;5034412;28;20187;-46
2023/05/01 07:30:29;;;;;;;5.60;3.43;;;14.40;99.90;;;;;;5034682;28;20219;-47
2023/05/01 07:32:56;;;;;;;5.27;3.43;;;14.50;99.90;;;;;;5034297;28;20274;-47
2023/05/01 07:35:22;;;;;;;7.20;3.50;;;14.60;99.90;;;;;;5034630;28;20299;-47
2023/05/01 07:37:50;;;;;;;4.93;2.83;;;14.60;99.90;;;;;;5034194;28;20224;-46
2023/05/01 07:40:16;;;;;;;6.40;3.33;;;14.60;99.90;;;;;;5034104;28;20181;-47
2023/05/01 07:42:42;;;;;;;5.67;3.27;;;14.60;99.90;;;;;;5016345;28;20207;-46
2023/05/01 07:45:08;;;;;;;6.33;3.10;;;14.80;99.90;;;;;;5034433;28;20185;-46
2023/05/01 07:47:33;;;;;;;3.10;2.73;;;14.90;99.90;;;;;;5034057;28;20177;-47
2023/05/01 07:49:59;;;;;;;5.57;3.13;;;15.00;99.90;;;;;;5034274;28;20268;-46
2023/05/01 07:52:25;;;;;;;5.57;3.10;;;15.10;99.90;;;;;;5034233;28;20580;-45
2023/05/01 07:54:51;;;;;;;4.77;2.83;;;15.10;99.90;;;;;;5016193;28;20209;-47
2023/05/01 07:57:17;;;;;;;3.13;2.80;;;15.20;99.90;;;;;;5033895;28;20604;-47
2023/05/01 07:59:43;;;;;;;3.87;3.00;;;15.40;99.90;;;;;;5034066;28;20253;-47
2023/05/01 08:02:08;;;;;;;6.87;3.23;;;15.50;99.90;;;;;;5033906;28;20276;-46
2023/05/01 08:04:34;;;;;;;7.90;3.13;;;15.60;99.90;;;;;;5034100;28;20193;-46
2023/05/01 08:06:59;;;;;;;4.00;3.00;;;15.80;99.90;;;;;;5033728;28;20227;-48
2023/05/01 08:09:25;;;;;;;4.23;2.70;;;16.00;99.90;;;;;;5033967;28;20185;-47
2023/05/01 08:11:51;;;;;;;3.00;2.70;;;16.20;99.90;;;;;;5033519;28;20246;-50
2023/05/01 08:14:17;;;;;;;3.20;2.50;;;16.40;99.90;;;;;;5033615;28;20177;-48
2023/05/01 08:16:43;;;;;;;4.90;2.97;;;16.60;99.90;;;;;;5033767;28;20235;-51
2023/05/01 08:19:08;;;;;;;4.17;2.57;;;16.80;99.90;;;;;;5033460;28;20173;-50
2023/05/01 08:21:34;;;;;;;5.73;2.80;;;17.00;99.90;;;;;;5033411;28;20173;-51
2023/05/01 08:24:00;;;;;;;3.10;2.80;;;17.10;99.90;;;;;;5016054;28;20185;-49
2023/05/01 08:26:25;;;;;;;2.83;2.50;;;17.30;99.90;;;;;;5033636;28;20185;-50
2023/05/01 08:28:51;;;;;;;3.83;2.60;;;17.40;99.90;;;;;;5033485;28;20181;-50
2023/05/01 08:31:18;;;;;;;4.30;2.80;;;17.60;99.90;;;;;;5033553;28;20173;-50
2023/05/01 08:33:43;;;;;;;3.70;2.60;;;17.90;99.90;;;;;;5034355;28;20212;-50
2023/05/01 08:36:10;;;;;;;4.57;2.60;;;18.20;99.90;;;;;;5033294;28;20211;-51
2023/05/01 08:38:36;;;;;;;3.70;2.30;;;18.40;99.90;;;;;;5033592;28;20544;-50
2023/05/01 08:41:02;;;;;;;4.27;2.63;;;18.60;99.90;;;;;;5033173;28;20172;-50
2023/05/01 08:43:31;;;;;;;4.20;2.90;;;18.80;99.90;;;;;;5033528;28;20229;-49
2023/05/01 08:46:01;;;;;;;4.77;2.33;;;19.00;99.90;;;;;;5033079;28;20649;-49
2023/05/01 08:48:28;;;;;;;4.67;2.90;;;19.20;99.90;;;;;;5033158;28;20226;-49
2023/05/01 08:50:59;;;;;;;3.83;2.30;;;19.20;99.90;;;;;;5033314;28;20213;-48
2023/05/01 08:53:25;;;;;;;4.10;2.20;;;19.10;99.90;;;;;;5033321;28;20315;-50
2023/05/01 08:55:52;;;;;;;4.67;2.33;;;19.20;99.90;;;;;;5033194;28;20216;-48
2023/05/01 08:58:19;;;;;;;3.70;2.40;;;19.40;99.90;;;;;;5033296;28;20185;-50
2023/05/01 09:00:46;;;;;;;4.13;2.97;;;19.60;99.90;;;;;;5033280;28;20212;-49
2023/05/01 09:03:12;;;;;;;3.10;2.57;;;19.90;99.90;;;;;;5033142;28;20196;-49
2023/05/01 09:05:39;;;;;;;5.13;2.47;;;20.10;99.90;;;;;;5033210;28;20177;-49
2023/05/01 09:08:04;;;;;;;3.07;2.73;;;20.00;99.90;;;;;;5033234;28;20586;-49
2023/05/01 09:10:31;;;;;;;5.13;2.80;;;19.70;99.90;;;;;;5033280;28;20242;-50
2023/05/01 09:13:00;;;;;;;5.13;2.80;;;19.50;99.90;;;;;;5033035;28;20207;-49
2023/05/01 09:15:28;;;;;;;5.80;3.17;;;19.40;99.90;;;;;;5015071;28;20262;-49
2023/05/01 09:17:56;;;;;;;3.93;2.60;;;19.30;99.90;;;;;;5033168;28;20185;-50
2023/05/01 09:20:23;;;;;;;3.53;2.90;;;19.50;99.90;;;;;;5033162;28;20181;-48
2023/05/01 09:22:49;;;;;;;4.80;2.33;;;19.80;99.90;;;;;;5032916;28;20207;-49
2023/05/01 09:25:14;;;;;;;4.27;2.60;;;20.10;99.90;;;;;;5033437;28;20176;-50
2023/05/01 09:27:40;;;;;;;3.63;2.20;;;20.40;99.90;;;;;;5033052;28;20181;-49
2023/05/01 09:30:06;;;;;;;3.77;2.77;;;20.70;99.90;;;;;;5032930;28;20177;-49
2023/05/01 09:32:32;;;;;;;3.00;2.70;;;21.00;99.90;;;;;;5035347;28;20700;-48
2023/05/01 09:35:12;;;;;;;4.73;2.93;;;21.00;99.90;;;;;;5036829;28;20200;-50
2023/05/01 09:37:38;;;;;;;4.10;2.73;;;21.10;99.90;;;;;;5036511;28;20253;-49
2023/05/01 09:40:08;;;;;;;3.47;2.67;;;21.20;99.90;;;;;;5036558;28;20177;-48
2023/05/01 09:42:51;;;;;;;3.13;2.80;;;21.30;99.90;;;;;;5036184;28;20247;-49
2023/05/01 09:45:20;;;;;;;6.57;2.80;;;21.40;99.90;;;;;;5036244;28;20176;-49
2023/05/01 09:47:46;;;;;;;4.40;2.73;;;21.40;99.90;;;;;;5036148;28;20645;-49
2023/05/01 09:50:29;;;;;;;4.80;2.37;;;21.50;99.90;;;;;;5036384;28;20227;-48
2023/05/01 09:52:55;;;;;;;2.60;2.40;;;21.50;99.90;;;;;;5036876;28;20208;-49
2023/05/01 09:55:22;;;;;;;2.23;2.03;;;21.60;99.90;;;;;;5035945;28;20215;-50
2023/05/01 09:57:48;;;;;;;3.17;2.40;;;21.70;99.90;;;;;;5036184;28;20189;-48
2023/05/01 10:00:14;;;;;;;6.27;2.53;;;21.70;99.90;;;;;;5036101;28;20321;-49
2023/05/01 10:02:43;;;;;;;5.70;3.13;;;21.80;99.90;;;;;;5036002;28;20287;-48
2023/05/01 10:05:09;;;;;;;5.73;2.70;;;21.80;99.90;;;;;;5018012;28;20185;-49
2023/05/01 10:07:35;;;;;;;3.10;2.70;;;21.90;99.90;;;;;;5036042;28;20679;-48
2023/05/01 10:10:20;;;;;;;2.90;2.57;;;21.90;99.90;;;;;;5035924;28;20271;-49
2023/05/01 10:12:46;;;;;;;4.97;2.40;;;21.90;99.90;;;;;;5035710;28;20561;-48
2023/05/01 10:15:12;;;;;;;3.07;2.87;;;22.00;99.90;;;;;;5017772;28;20212;-48
2023/05/01 10:17:38;;;;;;;5.30;2.83;;;22.10;99.90;;;;;;5035769;28;20281;-48
2023/05/01 10:20:09;;;;;;;5.63;3.17;;;22.00;99.90;;;;;;5035725;28;20239;-48
2023/05/01 10:22:35;;;;;;;9.20;2.80;;;21.90;99.90;;;;;;5035639;28;20204;-48
2023/05/01 10:25:03;;;;;;;3.40;2.63;;;21.80;99.90;;;;;;5035423;28;20188;-49
2023/05/01 10:27:29;;;;;;;3.50;2.43;;;21.80;99.90;;;;;;5035324;28;20654;-47
2023/05/01 10:29:55;;;;;;;6.50;2.70;;;21.90;99.90;;;;;;5035545;28;20206;-49
2023/05/01 10:32:21;;;;;;;2.83;2.17;;;21.90;99.90;;;;;;5035514;28;20252;-48
2023/05/01 10:35:00;;;;;;;2.90;2.27;;;22.00;99.90;;;;;;5035078;28;20220;-51
2023/05/01 10:37:33;;;;;;;3.23;2.63;;;22.10;99.90;;;;;;5035401;28;20613;-50
2023/05/01 10:39:59;;;;;;;3.07;2.57;;;22.10;99.90;;;;;;5035157;28;20623;-52
2023/05/01 10:42:25;;;;;;;3.80;2.40;;;22.10;99.90;;;;;;5034374;28;20220;-53
2023/05/01 10:44:51;;;;;;;2.90;2.33;;;22.00;99.90;;;;;;5034928;28;20184;-51
2023/05/01 10:47:23;;;;;;;4.00;2.53;;;22.00;99.90;;;;;;5034891;28;20653;-51
2023/05/01 10:50:11;;;;;;;4.00;3.00;;;22.00;99.90;;;;;;5017239;28;20648;-51
2023/05/01 10:53:11;;;;;;;3.20;2.40;;;22.00;99.90;;;;;;5035143;28;20231;-51
2023/05/01 10:55:43;;;;;;;4.40;2.43;;;22.00;99.90;;;;;;5035047;28;20662;-51
2023/05/01 10:58:13;;;;;;;4.90;2.43;;;22.00;99.90;;;;;;5034830;28;20203;-51
2023/05/01 11:00:39;;;;;;;3.47;2.60;;;22.00;99.90;;;;;;5035027;28;20196;-52
2023/05/01 11:03:20;;;;;;;3.50;2.80;;;22.00;99.90;;;;;;5034669;28;20247;-51
2023/05/01 11:06:04;;;;;;;4.10;2.70;;;22.20;99.90;;;;;;5035933;28;20211;-52
2023/05/01 11:08:35;;;;;;;4.93;2.70;;;22.20;99.90;;;;;;5035944;28;20161;-52
2023/05/01 11:11:39;;;;;;;3.20;2.60;;;22.10;99.90;;;;;;5035728;28;20173;-51
2023/05/01 11:14:07;;;;;;;4.67;3.47;;;22.10;99.90;;;;;;5034436;28;20211;-45
2023/05/01 11:16:41;;;;;;;3.20;2.70;;;22.10;99.90;;;;;;5034834;28;20217;-46
2023/05/01 11:19:32;;;;;;;5.13;2.83;;;22.20;99.90;;;;;;5034567;28;20199;-47
2023/05/01 11:21:59;;;;;;;4.27;2.80;;;22.20;99.90;;;;;;5034311;28;20196;-48
2023/05/01 11:24:34;;;;;;;10.47;3.40;;;22.40;99.90;;;;;;5016723;28;20612;-48
2023/05/01 11:27:00;;;;;;;3.60;3.20;;;22.60;99.90;;;;;;5034811;28;20184;-46
2023/05/01 11:29:33;;;;;;;9.40;3.27;;;22.70;99.90;;;;;;5035110;28;20180;-48
2023/05/01 11:31:59;;;;;;;3.83;3.00;;;22.90;99.90;;;;;;5034328;28;20200;-48
2023/05/01 11:34:25;;;;;;;4.13;3.30;;;23.00;99.90;;;;;;5034592;28;20195;-49
2023/05/01 11:36:52;;;;;;;6.37;3.47;;;23.20;99.90;;;;;;5034615;28;20264;-48
2023/05/01 11:39:18;;;;;;;3.80;3.40;;;23.30;99.90;;;;;;5034202;28;20211;-48
2023/05/01 11:41:45;;;;;;;3.73;3.27;;;23.40;99.90;;;;;;5033864;28;20222;-48
2023/05/01 11:44:12;;;;;;;4.63;3.70;;;23.50;99.90;;;;;;5034511;28;20583;-49
2023/05/01 11:46:38;;;;;;;6.20;3.07;;;23.40;99.90;;;;;;5034166;28;20195;-47
2023/05/01 11:49:04;;;;;;;3.40;3.10;;;23.10;99.90;;;;;;5033783;28;20665;-48
2023/05/01 11:51:31;;;;;;;4.20;3.80;;;22.90;99.90;;;;;;5034069;28;20331;-48
2023/05/01 11:54:00;;;;;;;4.67;3.63;;;22.90;99.90;;;;;;5033560;28;20580;-49
2023/05/01 11:56:26;;;;;;;7.53;4.13;;;22.80;99.90;;;;;;5033893;28;20212;-48
2023/05/01 11:58:53;;;;;;;5.93;4.57;;;22.80;99.90;;;;;;5033629;28;20181;-48
2023/05/01 12:01:19;;;;;;;5.70;4.30;;;22.90;99.90;;;;;;5033865;28;20211;-48
2023/05/01 12:03:45;;;;;;;10.27;4.83;;;22.90;99.90;;;;;;5033821;28;20228;-48
2023/05/01 12:06:12;;;;;;;9.23;5.53;;;22.90;99.90;;;;;;5033899;28;20721;-47
2023/05/01 12:08:42;;;;;;;7.90;6.10;;;22.80;99.90;;;;;;5033558;28;20181;-49
2023/05/01 12:11:08;;;;;;;8.23;5.30;;;22.70;99.90;;;;;;5034084;28;20161;-48
2023/05/01 12:13:34;;;;;;;7.27;5.30;;;22.70;99.90;;;;;;5033374;28;20266;-49
2023/05/01 12:16:00;;;;;;;4.87;3.23;;;22.50;99.90;;;;;;5033358;28;20232;-47
2023/05/01 12:18:26;;;;;;;5.20;3.83;;;22.50;99.90;;;;;;5033402;28;20177;-48
2023/05/01 12:20:53;;;;;;;3.47;3.17;;;22.40;99.90;;;;;;5034141;28;20181;-48
2023/05/01 12:23:30;;;;;;;2.70;2.37;;;22.30;99.90;;;;;;5033575;28;20201;-48
2023/05/01 12:25:56;;;;;;;2.37;1.60;;;22.30;99.90;;;;;;5033554;28;20168;-49
2023/05/01 12:28:21;;;;;;;3.00;1.30;;;22.40;99.90;;;;;;5033245;28;20603;-49
2023/05/01 12:30:48;;;;;;;1.30;1.20;;;22.50;99.90;;;;;;5033273;28;20185;-47
2023/05/01 12:33:16;;;;;;;1.60;1.10;;;22.50;99.90;;;;;;5033174;28;20232;-48
2023/05/01 12:35:47;;;;;;;1.57;1.00;;;22.50;99.90;;;;;;5033225;28;20209;-48
2023/05/01 12:38:15;;;;;;;1.13;1.00;;;22.40;99.90;;;;;;5033261;28;20161;-49
2023/05/01 12:40:53;;;;;;;1.17;1.00;;;22.50;99.90;;;;;;5033213;28;20653;-49
2023/05/01 12:43:33;;;;;;;1.20;1.10;;;22.70;99.90;;;;;;5033183;28;20197;-48
2023/05/01 12:45:59;;;;;;;1.57;1.40;;;22.90;99.90;;;;;;5033456;28;20173;-48
2023/05/01 12:48:25;;;;;;;2.10;1.30;;;23.10;99.90;;;;;;5032896;28;20227;-48
2023/05/01 12:50:54;;;;;;;0.90;0.87;;;23.40;99.90;;;;;;5033466;28;20247;-47